createdAt,value
2018-12-17T00:01:58.493Z,98267.95
2018-12-17T00:04:32.653Z,98273.08
2018-12-17T00:07:06.544Z,98273.28
2018-12-17T00:09:41.560Z,98270.16
2018-12-17T00:12:16.736Z,98267.80
2018-12-17T00:14:50.920Z,98268.97
2018-12-17T00:17:24.915Z,98265.82
2018-12-17T00:19:58.964Z,98271.42
2018-12-17T00:22:32.849Z,98272.88
2018-12-17T00:25:06.883Z,98272.80
2018-12-17T00:27:40.857Z,98274.09
2018-12-17T00:30:14.868Z,98275.88
2018-12-17T00:32:48.807Z,98268.55
2018-12-17T00:35:22.714Z,98268.34
2018-12-17T00:37:56.826Z,98264.64
2018-12-17T00:40:30.734Z,98267.20
2018-12-17T00:43:04.350Z,98274.21
2018-12-17T00:45:38.404Z,98275.60
2018-12-17T00:48:12.423Z,98272.88
2018-12-17T00:50:46.516Z,98269.33
2018-12-17T00:53:20.560Z,98274.10
2018-12-17T00:55:54.588Z,98274.81
2018-12-17T00:58:28.595Z,98273.35
2018-12-17T01:01:02.504Z,98268.50
2018-12-17T01:03:36.512Z,98272.13
2018-12-17T01:06:10.230Z,98277.13
2018-12-17T01:08:44.132Z,98280.20
2018-12-17T01:11:17.861Z,98286.05
2018-12-17T01:13:51.955Z,98276.66
2018-12-17T01:16:26.587Z,98285.53
2018-12-17T01:19:00.474Z,98282.61
2018-12-17T01:21:34.360Z,98277.95
2018-12-17T01:24:08.254Z,98281.78
2018-12-17T01:26:42.072Z,98279.88
2018-12-17T01:29:15.944Z,98283.51
2018-12-17T01:31:49.900Z,98283.44
2018-12-17T01:34:23.610Z,98298.50
2018-12-17T01:36:57.434Z,98300.48
2018-12-17T01:39:31.417Z,98302.13
2018-12-17T01:42:05.222Z,98294.80
2018-12-17T01:44:39.129Z,98298.15
2018-12-17T01:47:12.901Z,98295.08
2018-12-17T01:49:47.045Z,98289.59
2018-12-17T01:52:21.055Z,98292.80
2018-12-17T01:54:54.962Z,98290.90
2018-12-17T01:57:28.743Z,98295.63
2018-12-17T02:00:02.981Z,98293.66
2018-12-17T02:02:36.993Z,98293.09
2018-12-17T02:05:10.898Z,98296.56
2018-12-17T02:07:44.804Z,98294.80
2018-12-17T02:10:18.815Z,98295.62
2018-12-17T02:12:52.823Z,98292.47
2018-12-17T02:15:26.526Z,98296.45
2018-12-17T02:18:00.595Z,98298.98
2018-12-17T02:20:34.648Z,98294.94
2018-12-17T02:23:08.555Z,98303.28
2018-12-17T02:25:42.628Z,98300.95
2018-12-17T02:28:16.577Z,98297.00
2018-12-17T02:30:50.483Z,98298.23
2018-12-17T02:33:24.396Z,98302.13
2018-12-17T02:35:58.297Z,98301.03
2018-12-17T02:38:32.100Z,98303.64
2018-12-17T02:41:06.111Z,98315.83
2018-12-17T02:43:40.017Z,98311.92
2018-12-17T02:46:13.822Z,98308.09
2018-12-17T02:48:47.730Z,98317.28
2018-12-17T02:51:21.533Z,98314.59
2018-12-17T02:53:55.544Z,98313.65
2018-12-17T02:56:29.350Z,98318.50
2018-12-17T02:59:03.255Z,98314.89
2018-12-17T03:01:37.171Z,98311.58
2018-12-17T03:04:11.062Z,98315.42
2018-12-17T03:06:44.802Z,98324.20
2018-12-17T03:09:18.680Z,98324.96
2018-12-17T03:11:52.550Z,98322.90
2018-12-17T03:14:26.701Z,98323.86
2018-12-17T03:17:00.460Z,98321.53
2018-12-17T03:19:34.481Z,98327.30
2018-12-17T03:22:08.629Z,98330.45
2018-12-17T03:24:42.532Z,98329.34
2018-12-17T03:27:16.540Z,98334.27
2018-12-17T03:29:50.447Z,98338.27
2018-12-17T03:32:24.462Z,98332.91
2018-12-17T03:34:58.467Z,98341.55
2018-12-17T03:37:32.374Z,98340.31
2018-12-17T03:40:06.488Z,98346.54
2018-12-17T03:42:40.398Z,98356.76
2018-12-17T03:45:14.250Z,98359.44
2018-12-17T03:47:48.144Z,98358.20
2018-12-17T03:50:22.121Z,98354.14
2018-12-17T03:52:56.228Z,98358.20
2018-12-17T03:55:30.134Z,98359.02
2018-12-17T03:58:04.088Z,98355.52
2018-12-17T04:00:38.065Z,98356.13
2018-12-17T04:03:12.115Z,98355.78
2018-12-17T04:05:45.864Z,98362.48
2018-12-17T04:08:19.874Z,98356.38
2018-12-17T04:10:53.781Z,98357.84
2018-12-17T04:13:27.755Z,98361.94
2018-12-17T04:16:01.700Z,98360.05
2018-12-17T04:18:35.712Z,98360.80
2018-12-17T04:21:09.474Z,98367.58
2018-12-17T04:23:43.488Z,98369.63
2018-12-17T04:26:17.548Z,98361.54
2018-12-17T04:28:51.643Z,98375.59
2018-12-17T04:31:25.348Z,98372.72
2018-12-17T04:33:59.359Z,98380.05
2018-12-17T04:36:33.261Z,98380.33
2018-12-17T04:39:07.169Z,98389.24
2018-12-17T04:41:41.076Z,98391.99
2018-12-17T04:44:14.984Z,98398.78
2018-12-17T04:46:48.994Z,98397.68
2018-12-17T04:49:22.697Z,98405.58
2018-12-17T04:51:56.504Z,98412.37
2018-12-17T04:54:30.817Z,98416.89
2018-12-17T04:57:04.536Z,98425.39
2018-12-17T04:59:38.386Z,98430.33
2018-12-17T05:02:12.133Z,98436.36
2018-12-17T05:04:46.139Z,98442.20
2018-12-17T05:07:20.046Z,98439.91
2018-12-17T05:09:53.803Z,98431.08
2018-12-17T05:12:27.861Z,98436.92
2018-12-17T05:15:03.718Z,98439.78
2018-12-17T05:17:37.692Z,98437.70
2018-12-17T05:20:11.471Z,98443.87
2018-12-17T05:22:45.577Z,98449.65
2018-12-17T05:25:19.494Z,98454.05
2018-12-17T05:27:53.485Z,98460.25
2018-12-17T05:30:27.464Z,98459.60
2018-12-17T05:33:01.905Z,98467.27
2018-12-17T05:35:35.994Z,98472.68
2018-12-17T05:38:10.005Z,98482.14
2018-12-17T05:40:45.959Z,98475.05
2018-12-17T05:43:19.978Z,98478.04
2018-12-17T05:45:53.771Z,98474.47
2018-12-17T05:48:27.838Z,98483.11
2018-12-17T05:51:01.855Z,98481.59
2018-12-17T05:53:35.803Z,98484.69
2018-12-17T05:56:09.790Z,98479.20
2018-12-17T05:58:43.787Z,98488.88
2018-12-17T06:01:17.831Z,98488.69
2018-12-17T06:03:51.718Z,98480.87
2018-12-17T06:06:25.754Z,98486.48
2018-12-17T06:08:59.603Z,98493.63
2018-12-17T06:11:33.768Z,98494.16
2018-12-17T06:14:07.775Z,98499.22
2018-12-17T06:16:41.579Z,98495.67
2018-12-17T06:19:15.289Z,98491.73
2018-12-17T06:21:49.497Z,98496.69
2018-12-17T06:24:23.711Z,98503.31
2018-12-17T06:26:57.618Z,98508.21
2018-12-17T06:29:35.555Z,98511.09
2018-12-17T06:32:07.563Z,98517.16
2018-12-17T06:34:41.454Z,98508.03
2018-12-17T06:37:15.605Z,98512.09
2018-12-17T06:39:49.362Z,98512.15
2018-12-17T06:42:23.519Z,98512.58
2018-12-17T06:44:57.373Z,98515.81
2018-12-17T06:47:31.436Z,98518.47
2018-12-17T06:50:06.058Z,98521.98
2018-12-17T06:52:40.071Z,98518.97
2018-12-17T06:55:13.822Z,98525.31
2018-12-17T06:57:48.093Z,98525.31
2018-12-17T07:00:21.996Z,98522.75
2018-12-17T07:02:55.902Z,98517.14
2018-12-17T07:05:29.709Z,98520.38
2018-12-17T07:08:03.805Z,98518.27
2018-12-17T07:10:37.728Z,98521.07
2018-12-17T07:13:11.941Z,98524.16
2018-12-17T07:15:45.723Z,98531.42
2018-12-17T07:18:19.755Z,98534.38
2018-12-17T07:20:53.537Z,98534.30
2018-12-17T07:23:27.369Z,98539.59
2018-12-17T07:26:01.375Z,98544.89
2018-12-17T07:28:35.384Z,98548.09
2018-12-17T07:31:09.188Z,98546.31
2018-12-17T07:33:42.993Z,98543.70
2018-12-17T07:36:17.382Z,98554.48
2018-12-17T07:38:51.114Z,98555.42
2018-12-17T07:41:25.023Z,98559.70
2018-12-17T07:43:58.778Z,98559.23
2018-12-17T07:46:33.050Z,98568.28
2018-12-17T07:49:07.051Z,98565.78
2018-12-17T07:51:40.958Z,98571.83
2018-12-17T07:54:14.865Z,98539.47
2018-12-17T07:56:48.773Z,98584.74
2018-12-17T07:59:22.580Z,98578.78
2018-12-17T08:01:56.589Z,98589.96
2018-12-17T08:04:30.393Z,98592.56
2018-12-17T08:07:04.211Z,98596.33
2018-12-17T08:09:38.310Z,98598.81
2018-12-17T08:12:12.225Z,98600.67
2018-12-17T08:14:46.329Z,98605.77
2018-12-17T08:17:20.235Z,98606.80
2018-12-17T08:19:54.244Z,98610.91
2018-12-17T08:22:28.357Z,98615.56
2018-12-17T08:25:02.409Z,98624.10
2018-12-17T08:27:36.580Z,98623.12
2018-12-17T08:30:10.386Z,98629.87
2018-12-17T08:32:44.193Z,98630.34
2018-12-17T08:35:18.409Z,98631.09
2018-12-17T08:37:52.194Z,98627.19
2018-12-17T08:40:26.188Z,98628.02
2018-12-17T08:43:00.229Z,98634.93
2018-12-17T08:45:34.137Z,98643.47
2018-12-17T08:48:07.861Z,98649.36
2018-12-17T08:50:41.747Z,98647.10
2018-12-17T08:53:15.858Z,98653.63
2018-12-17T08:55:49.642Z,98656.03
2018-12-17T08:58:23.980Z,98654.78
2018-12-17T09:00:57.888Z,98658.89
2018-12-17T09:03:31.895Z,98659.94
2018-12-17T09:06:05.763Z,98666.38
2018-12-17T09:08:39.812Z,98669.89
2018-12-17T09:11:13.597Z,98666.68
2018-12-17T09:13:47.728Z,98665.02
2018-12-17T09:16:21.738Z,98669.84
2018-12-17T09:18:55.749Z,98671.06
2018-12-17T09:21:29.557Z,98671.19
2018-12-17T09:24:03.563Z,98673.20
2018-12-17T09:26:37.378Z,98677.09
2018-12-17T09:29:11.275Z,98678.06
2018-12-17T09:31:45.090Z,98678.75
2018-12-17T09:34:18.844Z,98676.72
2018-12-17T09:36:52.792Z,98675.37
2018-12-17T09:39:26.698Z,98678.14
2018-12-17T09:42:00.811Z,98678.82
2018-12-17T09:44:34.620Z,98684.31
2018-12-17T09:47:08.624Z,98685.45
2018-12-17T09:49:42.532Z,98689.28
2018-12-17T09:52:16.444Z,98683.33
2018-12-17T09:54:50.244Z,98690.92
2018-12-17T09:57:23.913Z,98694.15
2018-12-17T09:59:57.748Z,98687.12
2018-12-17T10:02:31.601Z,98688.36
2018-12-17T10:05:05.673Z,98680.00
2018-12-17T10:07:39.677Z,98678.84
2018-12-17T10:10:13.583Z,98683.13
2018-12-17T10:12:47.288Z,98676.98
2018-12-17T10:15:21.236Z,98671.98
2018-12-17T10:17:55.305Z,98671.02
2018-12-17T10:20:29.319Z,98661.46
2018-12-17T10:23:03.428Z,98659.89
2018-12-17T10:25:37.334Z,98658.70
2018-12-17T10:28:11.325Z,98661.59
2018-12-17T10:30:45.321Z,98660.11
2018-12-17T10:33:19.465Z,98662.11
2018-12-17T10:35:53.372Z,98664.68
2018-12-17T10:38:27.076Z,98664.02
2018-12-17T10:41:01.187Z,98670.29
2018-12-17T10:43:35.094Z,98674.77
2018-12-17T10:46:08.878Z,98680.53
2018-12-17T10:48:42.908Z,98676.59
2018-12-17T10:51:16.760Z,98673.45
2018-12-17T10:53:50.825Z,98674.53
2018-12-17T10:56:24.630Z,98680.47
2018-12-17T10:58:58.611Z,98686.55
2018-12-17T11:01:51.389Z,98685.34
2018-12-17T11:04:27.446Z,98683.74
2018-12-17T11:07:01.250Z,98686.41
2018-12-17T11:09:35.059Z,98678.41
2018-12-17T11:12:09.167Z,98680.03
2018-12-17T11:14:43.095Z,98681.36
2018-12-17T11:17:16.959Z,98676.31
2018-12-17T11:19:51.051Z,98673.81
2018-12-17T11:22:25.046Z,98674.22
2018-12-17T11:24:59.114Z,98674.50
2018-12-17T11:27:32.819Z,98675.52
2018-12-17T11:30:09.082Z,98668.47
2018-12-17T11:32:43.794Z,98672.13
2018-12-17T11:35:18.705Z,98666.45
2018-12-17T11:37:52.746Z,98672.96
2018-12-17T11:40:26.653Z,98670.16
2018-12-17T11:43:00.710Z,98669.34
2018-12-17T11:45:34.875Z,98666.59
2018-12-17T11:48:08.886Z,98657.29
2018-12-17T11:50:42.793Z,98663.39
2018-12-17T11:53:17.006Z,98662.20
2018-12-17T11:55:51.199Z,98662.31
2018-12-17T11:58:25.334Z,98660.86
2018-12-17T12:01:00.234Z,98669.11
2018-12-17T12:03:35.810Z,98674.58
2018-12-17T12:06:13.917Z,98674.05
2018-12-17T12:08:45.674Z,98671.59
2018-12-17T12:11:19.554Z,98669.83
2018-12-17T12:13:53.487Z,98677.44
2018-12-17T12:16:27.906Z,98674.93
2018-12-17T12:19:01.927Z,98671.62
2018-12-17T12:21:35.721Z,98665.41
2018-12-17T12:24:09.730Z,98669.53
2018-12-17T12:26:43.534Z,98672.84
2018-12-17T12:29:17.631Z,98675.08
2018-12-17T12:31:51.759Z,98676.91
2018-12-17T12:34:25.666Z,98676.52
2018-12-17T12:36:59.573Z,98676.48
2018-12-17T12:39:33.582Z,98675.75
2018-12-17T12:42:07.286Z,98677.44
2018-12-17T12:44:41.199Z,98681.53
2018-12-17T12:47:15.304Z,98683.12
2018-12-17T12:49:49.116Z,98681.41
2018-12-17T12:52:23.223Z,98684.95
2018-12-17T12:54:57.236Z,98689.75
2018-12-17T12:57:31.243Z,98694.36
2018-12-17T13:00:07.666Z,98690.23
2018-12-17T13:02:41.729Z,98699.95
2018-12-17T13:05:15.624Z,98695.06
2018-12-17T13:07:49.429Z,98700.38
2018-12-17T13:10:23.338Z,98693.94
2018-12-17T13:12:57.105Z,98694.91
2018-12-17T13:15:31.256Z,98705.43
2018-12-17T13:18:05.265Z,98709.72
2018-12-17T13:20:39.171Z,98522.17
2018-12-17T13:23:12.855Z,98700.64
2018-12-17T13:25:47.804Z,98705.95
2018-12-17T13:28:21.711Z,98708.45
2018-12-17T13:30:55.517Z,98710.44
2018-12-17T13:33:29.324Z,98710.20
2018-12-17T13:36:04.284Z,98711.43
2018-12-17T13:38:38.026Z,98722.36
2018-12-17T13:41:11.964Z,98714.02
2018-12-17T13:43:45.871Z,98714.75
2018-12-17T13:46:19.680Z,98707.58
2018-12-17T13:48:53.788Z,98718.27
2018-12-17T13:51:33.740Z,98723.67
2018-12-17T13:54:07.646Z,98718.45
2018-12-17T13:56:41.451Z,98721.09
2018-12-17T13:59:15.261Z,98725.48
2018-12-17T14:01:51.592Z,98721.85
2018-12-17T14:04:25.182Z,98733.68
2018-12-17T14:06:59.276Z,98741.53
2018-12-17T14:09:35.186Z,98736.77
2018-12-17T14:12:09.193Z,98747.23
2018-12-17T14:14:43.102Z,98748.03
2018-12-17T14:17:22.640Z,98756.93
2018-12-17T14:20:02.080Z,98763.80
2018-12-17T14:22:35.881Z,98768.86
2018-12-17T14:25:10.100Z,98765.34
2018-12-17T14:27:43.895Z,98766.77
2018-12-17T14:30:18.658Z,98777.36
2018-12-17T14:32:52.537Z,98778.55
2018-12-17T14:35:26.441Z,98778.41
2018-12-17T14:38:02.501Z,98781.66
2018-12-17T14:40:36.306Z,98778.95
2018-12-17T14:43:10.172Z,98787.23
2018-12-17T14:45:44.323Z,98780.98
2018-12-17T14:48:18.028Z,98788.92
2018-12-17T14:50:52.142Z,98786.98
2018-12-17T14:53:26.047Z,98791.34
2018-12-17T14:55:59.934Z,98800.02
2018-12-17T14:58:33.863Z,98802.09
2018-12-17T15:01:07.974Z,98805.03
2018-12-17T15:03:41.839Z,98804.70
2018-12-17T15:06:15.683Z,98817.88
2018-12-17T15:08:49.805Z,98819.87
2018-12-17T15:11:23.806Z,98825.03
2018-12-17T15:13:57.559Z,98829.26
2018-12-17T15:16:31.724Z,98829.11
2018-12-17T15:19:05.494Z,98830.95
2018-12-17T15:21:39.587Z,98836.38
2018-12-17T15:24:13.631Z,98834.25
2018-12-17T15:26:47.774Z,98841.69
2018-12-17T15:29:21.668Z,98843.65
2018-12-17T15:31:55.577Z,98851.92
2018-12-17T15:34:29.384Z,98857.57
2018-12-17T15:37:03.594Z,98856.38
2018-12-17T15:39:37.760Z,98859.39
2018-12-17T15:42:11.678Z,98865.66
2018-12-17T15:44:45.694Z,98875.92
2018-12-17T15:47:19.713Z,98876.18
2018-12-17T15:49:53.846Z,98877.65
2018-12-17T15:52:27.754Z,98881.48
2018-12-17T15:55:02.513Z,98883.50
2018-12-17T15:57:36.496Z,98889.65
2018-12-17T16:00:11.028Z,98893.37
2018-12-17T16:02:44.920Z,98895.66
2018-12-17T16:05:18.720Z,98898.78
2018-12-17T16:07:52.632Z,98899.81
2018-12-17T16:10:26.642Z,98897.27
2018-12-17T16:13:00.316Z,98899.91
2018-12-17T16:15:34.352Z,98900.62
2018-12-17T16:18:08.260Z,98904.45
2018-12-17T16:20:42.168Z,98905.85
2018-12-17T16:23:15.934Z,98903.50
2018-12-17T16:25:49.984Z,98906.62
2018-12-17T16:28:23.788Z,98910.16
2018-12-17T16:30:57.837Z,98912.03
2018-12-17T16:33:32.115Z,98917.95
2018-12-17T16:36:05.917Z,98919.46
2018-12-17T16:38:39.826Z,98920.69
2018-12-17T16:41:13.835Z,98921.77
2018-12-17T16:43:47.538Z,98886.12
2018-12-17T16:46:21.750Z,98939.50
2018-12-17T16:48:55.864Z,98939.09
2018-12-17T16:51:29.873Z,98941.50
2018-12-17T16:54:03.672Z,98942.67
2018-12-17T16:56:37.790Z,98951.34
2018-12-17T16:59:11.902Z,98946.19
2018-12-17T17:01:45.706Z,98957.61
2018-12-17T17:04:19.614Z,98953.89
2018-12-17T17:06:53.524Z,98952.02
2018-12-17T17:09:27.633Z,98955.25
2018-12-17T17:12:01.445Z,98957.03
2018-12-17T17:14:35.311Z,98964.55
2018-12-17T17:17:09.354Z,98960.35
2018-12-17T17:19:43.371Z,98970.94
2018-12-17T17:22:17.173Z,98973.64
2018-12-17T17:24:51.193Z,98970.41
2018-12-17T17:27:25.292Z,98973.77
2018-12-17T17:29:59.304Z,98974.34
2018-12-17T17:32:33.172Z,98968.98
2018-12-17T17:35:07.135Z,98969.65
2018-12-17T17:37:41.126Z,98973.50
2018-12-17T17:40:15.339Z,98973.97
2018-12-17T17:42:49.351Z,98969.58
2018-12-17T17:45:23.974Z,98971.87
2018-12-17T17:47:57.841Z,98974.94
2018-12-17T17:50:31.993Z,98982.55
2018-12-17T17:53:05.901Z,98990.16
2018-12-17T17:55:39.908Z,98988.91
2018-12-17T17:58:13.815Z,98994.44
2018-12-17T18:00:47.725Z,99003.55
2018-12-17T18:03:21.533Z,99006.94
2018-12-17T18:05:55.213Z,99001.41
2018-12-17T18:08:29.137Z,99000.80
2018-12-17T18:11:03.147Z,99008.13
2018-12-17T18:13:36.918Z,99004.06
2018-12-17T18:16:11.065Z,99008.66
2018-12-17T18:18:44.975Z,99006.88
2018-12-17T18:21:18.878Z,99011.13
2018-12-17T18:23:52.785Z,99008.60
2018-12-17T18:26:26.898Z,99014.27
2018-12-17T18:29:00.804Z,99019.65
2018-12-17T18:31:34.609Z,99019.23
2018-12-17T18:34:08.517Z,99019.55
2018-12-17T18:36:42.423Z,99025.53
2018-12-17T18:39:16.332Z,99022.72
2018-12-17T18:41:50.510Z,99025.95
2018-12-17T18:44:25.379Z,99033.05
2018-12-17T18:46:59.588Z,99037.54
2018-12-17T18:49:33.393Z,99047.53
2018-12-17T18:52:07.305Z,99046.05
2018-12-17T18:54:41.076Z,99051.54
2018-12-17T18:57:15.217Z,99053.72
2018-12-17T18:59:49.226Z,99049.59
2018-12-17T19:02:23.236Z,99051.72
2018-12-17T19:04:57.144Z,99050.43
2018-12-17T19:07:31.051Z,99058.19
2018-12-17T19:10:06.392Z,99055.81
2018-12-17T19:12:40.204Z,99071.63
2018-12-17T19:15:14.206Z,99066.06
2018-12-17T19:17:48.114Z,99076.69
2018-12-17T19:20:22.123Z,99078.17
2018-12-17T19:22:56.032Z,99086.87
2018-12-17T19:25:29.762Z,99084.27
2018-12-17T19:28:03.948Z,99090.62
2018-12-17T19:30:37.757Z,99093.86
2018-12-17T19:33:11.968Z,99094.96
2018-12-17T19:35:45.916Z,99093.03
2018-12-17T19:38:19.986Z,99098.23
2018-12-17T19:40:53.792Z,99101.67
2018-12-17T19:43:27.684Z,99102.86
2018-12-17T19:46:01.807Z,99101.97
2018-12-17T19:48:35.821Z,99106.84
2018-12-17T19:51:09.836Z,99110.43
2018-12-17T19:53:43.908Z,99101.70
2018-12-17T19:56:18.021Z,99111.71
2018-12-17T19:58:51.915Z,99113.00
2018-12-17T20:01:26.074Z,99121.07
2018-12-17T20:03:59.982Z,99113.42
2018-12-17T20:06:34.101Z,99124.93
2018-12-17T20:09:08.204Z,99126.06
2018-12-17T20:11:42.117Z,99126.78
2018-12-17T20:14:16.121Z,99123.40
2018-12-17T20:16:50.218Z,99128.55
2018-12-17T20:19:24.106Z,99135.98
2018-12-17T20:21:58.050Z,99135.61
2018-12-17T20:24:32.061Z,99136.39
2018-12-17T20:27:06.171Z,99135.62
2018-12-17T20:29:40.076Z,99139.58
2018-12-17T20:32:13.920Z,99145.62
2018-12-17T20:34:47.996Z,99144.61
2018-12-17T20:37:22.058Z,99140.89
2018-12-17T20:39:56.117Z,99150.10
2018-12-17T20:42:30.126Z,99152.45
2018-12-17T20:45:05.179Z,99156.82
2018-12-17T20:47:39.169Z,99161.98
2018-12-17T20:50:12.870Z,99156.84
2018-12-17T20:52:46.778Z,99159.27
2018-12-17T20:55:21.712Z,99162.40
2018-12-17T20:57:55.720Z,99161.62
2018-12-17T21:00:30.039Z,99158.73
2018-12-17T21:03:04.147Z,99166.78
2018-12-17T21:05:37.922Z,99174.17
2018-12-17T21:08:12.063Z,99169.20
2018-12-17T21:10:45.970Z,99167.25
2018-12-17T21:13:19.986Z,99177.50
2018-12-17T21:15:53.677Z,99184.66
2018-12-17T21:18:27.795Z,99179.80
2018-12-17T21:21:01.554Z,99179.29
2018-12-17T21:23:36.563Z,99178.33
2018-12-17T21:26:10.815Z,99185.44
2018-12-17T21:28:44.731Z,99184.08
2018-12-17T21:31:18.867Z,99180.64
2018-12-17T21:33:52.616Z,99182.55
2018-12-17T21:36:26.685Z,99183.57
2018-12-17T21:39:00.553Z,99186.19
2018-12-17T21:41:34.600Z,99190.80
2018-12-17T21:44:08.710Z,99187.85
2018-12-17T21:46:42.618Z,99188.86
2018-12-17T21:49:16.422Z,99194.27
2018-12-17T21:51:50.228Z,99150.10
2018-12-17T21:54:24.441Z,99197.12
2018-12-17T21:56:58.350Z,99200.63
2018-12-17T21:59:32.360Z,99204.85
2018-12-17T22:02:06.572Z,99213.77
2018-12-17T22:04:40.628Z,99224.80
2018-12-17T22:07:14.706Z,99220.22
2018-12-17T22:09:48.909Z,99225.84
2018-12-17T22:12:22.724Z,99227.69
2018-12-17T22:14:56.723Z,99223.97
2018-12-17T22:17:30.645Z,99227.35
2018-12-17T22:20:05.669Z,99230.98
2018-12-17T22:22:39.476Z,99228.97
2018-12-17T22:25:13.478Z,99236.82
2018-12-17T22:27:47.389Z,99231.67
2018-12-17T22:30:21.299Z,99232.22
2018-12-17T22:32:56.199Z,99237.28
2018-12-17T22:35:31.886Z,99233.88
2018-12-17T22:38:05.839Z,99233.74
2018-12-17T22:40:39.775Z,99243.50
2018-12-17T22:43:13.866Z,99234.64
2018-12-17T22:45:48.013Z,99241.06
2018-12-17T22:48:22.023Z,99237.53
2018-12-17T22:50:55.938Z,99240.38
2018-12-17T22:53:29.986Z,99243.23
2018-12-17T22:56:04.051Z,99245.70
2018-12-17T22:58:42.319Z,99241.27
2018-12-17T23:01:14.121Z,99250.27
2018-12-17T23:03:48.128Z,99253.92
2018-12-17T23:06:22.243Z,99252.34
2018-12-17T23:09:04.853Z,99252.91
2018-12-17T23:11:56.476Z,99258.53
2018-12-17T23:14:42.626Z,99259.03
2018-12-17T23:17:28.453Z,99252.90
2018-12-17T23:20:02.262Z,99264.73
2018-12-17T23:22:38.622Z,99260.95
2018-12-17T23:25:12.532Z,99250.28
2018-12-17T23:27:48.587Z,99244.11
2018-12-17T23:30:22.859Z,99242.94
2018-12-17T23:32:58.352Z,99238.95
2018-12-17T23:35:32.174Z,99239.32
2018-12-17T23:38:06.162Z,99242.24
2018-12-17T23:40:39.930Z,99235.14
2018-12-17T23:43:13.670Z,99240.11
2018-12-17T23:45:47.679Z,99236.16
2018-12-17T23:48:21.529Z,99226.47
2018-12-17T23:50:55.595Z,99231.63
2018-12-17T23:53:29.503Z,99231.36
2018-12-17T23:56:03.616Z,99228.59
2018-12-17T23:58:37.625Z,99228.78
